createdAt,value
2022-11-26T00:00:20.563Z,0.00
2022-11-26T00:01:20.599Z,0.00
2022-11-26T00:02:20.768Z,0.00
2022-11-26T00:03:20.727Z,0.00
2022-11-26T00:04:20.687Z,0.00
2022-11-26T00:06:20.736Z,0.00
2022-11-26T00:07:20.808Z,0.00
2022-11-26T00:08:21.040Z,0.00
2022-11-26T00:09:20.818Z,0.00
2022-11-26T00:10:20.861Z,0.00
2022-11-26T00:11:20.872Z,0.00
2022-11-26T00:12:20.899Z,0.00
2022-11-26T00:13:20.927Z,0.00
2022-11-26T00:14:20.959Z,0.00
2022-11-26T00:15:20.988Z,0.00
2022-11-26T00:16:21.071Z,0.00
2022-11-26T00:17:21.043Z,0.00
2022-11-26T00:18:21.074Z,0.00
2022-11-26T00:19:21.121Z,0.00
2022-11-26T00:20:21.124Z,0.00
2022-11-26T00:21:21.465Z,0.00
2022-11-26T00:22:21.188Z,0.00
2022-11-26T00:24:21.235Z,0.00
2022-11-26T00:25:21.261Z,0.00
2022-11-26T00:27:21.621Z,0.00
2022-11-26T00:28:21.346Z,0.00
2022-11-26T00:29:21.474Z,0.00
2022-11-26T00:30:21.410Z,0.00
2022-11-26T00:31:21.543Z,0.00
2022-11-26T00:32:21.464Z,0.00
2022-11-26T00:33:21.797Z,0.00
2022-11-26T00:34:21.515Z,0.00
2022-11-26T00:35:21.568Z,0.00
2022-11-26T00:36:21.570Z,0.00
2022-11-26T00:37:21.599Z,0.00
2022-11-26T00:38:21.634Z,0.00
2022-11-26T00:39:21.953Z,0.00
2022-11-26T00:41:21.709Z,0.00
2022-11-26T00:42:21.736Z,0.00
2022-11-26T00:43:21.771Z,0.00
2022-11-26T00:44:21.799Z,0.00
2022-11-26T00:45:21.831Z,0.00
2022-11-26T00:46:21.933Z,0.00
2022-11-26T00:47:21.881Z,0.00
2022-11-26T00:48:21.904Z,0.00
2022-11-26T00:49:21.938Z,0.00
2022-11-26T00:50:21.976Z,0.00
2022-11-26T00:51:22.014Z,0.00
2022-11-26T00:52:22.022Z,0.00
2022-11-26T00:54:22.074Z,0.00
2022-11-26T00:55:22.100Z,0.00
2022-11-26T00:56:22.128Z,0.00
2022-11-26T00:57:22.158Z,0.00
2022-11-26T00:58:22.184Z,0.00
2022-11-26T01:00:22.245Z,0.00
2022-11-26T01:01:22.391Z,0.00
2022-11-26T01:04:22.602Z,0.00
2022-11-26T01:05:22.385Z,0.00
2022-11-26T01:06:22.407Z,0.00
2022-11-26T01:07:22.567Z,0.00
2022-11-26T01:08:22.461Z,0.00
2022-11-26T01:09:22.498Z,0.00
2022-11-26T01:11:22.566Z,0.00
2022-11-26T01:12:22.585Z,0.00
2022-11-26T01:13:22.602Z,0.00
2022-11-26T01:14:22.636Z,0.00
2022-11-26T01:15:22.659Z,0.00
2022-11-26T01:16:22.757Z,0.00
2022-11-26T01:17:22.718Z,0.00
2022-11-26T01:18:23.044Z,0.00
2022-11-26T01:19:22.770Z,0.00
2022-11-26T01:20:25.547Z,0.00
2022-11-26T01:21:22.829Z,0.00
2022-11-26T01:22:22.857Z,0.00
2022-11-26T01:23:22.908Z,0.00
2022-11-26T01:24:23.162Z,0.00
2022-11-26T01:25:22.938Z,0.00
2022-11-26T01:26:22.976Z,0.00
2022-11-26T01:27:22.995Z,0.00
2022-11-26T01:28:23.021Z,0.00
2022-11-26T01:29:23.055Z,0.00
2022-11-26T01:30:23.379Z,0.00
2022-11-26T01:31:23.269Z,0.00
2022-11-26T01:33:23.162Z,0.00
2022-11-26T01:34:23.186Z,0.00
2022-11-26T01:35:23.217Z,0.00
2022-11-26T01:36:23.246Z,0.00
2022-11-26T01:38:23.309Z,0.00
2022-11-26T01:39:23.349Z,0.00
2022-11-26T01:40:23.359Z,0.00
2022-11-26T01:41:23.387Z,0.00
2022-11-26T01:42:23.416Z,0.00
2022-11-26T01:43:23.440Z,0.00
2022-11-26T01:45:23.544Z,0.00
2022-11-26T01:46:23.536Z,0.00
2022-11-26T01:47:23.558Z,0.00
2022-11-26T01:48:23.578Z,0.00
2022-11-26T01:49:23.608Z,0.00
2022-11-26T01:50:23.640Z,0.00
2022-11-26T01:51:23.668Z,0.00
2022-11-26T01:54:23.751Z,0.00
2022-11-26T01:55:23.797Z,0.00
2022-11-26T01:56:23.803Z,0.00
2022-11-26T01:57:23.832Z,0.00
2022-11-26T01:58:23.862Z,0.00
2022-11-26T01:59:23.887Z,0.00
2022-11-26T02:00:23.933Z,0.00
2022-11-26T02:01:24.295Z,0.00
2022-11-26T02:02:24.030Z,0.00
2022-11-26T02:03:24.003Z,0.00
2022-11-26T02:05:24.155Z,0.00
2022-11-26T02:06:24.087Z,0.00
2022-11-26T02:07:24.441Z,0.00
2022-11-26T02:08:24.145Z,0.00
2022-11-26T02:09:24.168Z,0.00
2022-11-26T02:10:24.198Z,0.00
2022-11-26T02:11:24.245Z,0.00
2022-11-26T02:12:24.351Z,0.00
2022-11-26T02:13:24.282Z,0.00
2022-11-26T02:14:24.306Z,0.00
2022-11-26T02:15:24.335Z,0.00
2022-11-26T02:16:24.422Z,0.00
2022-11-26T02:17:24.402Z,0.00
2022-11-26T02:18:24.424Z,0.00
2022-11-26T02:19:24.452Z,0.00
2022-11-26T02:20:24.477Z,0.00
2022-11-26T02:21:24.501Z,0.00
2022-11-26T02:22:24.537Z,0.00
2022-11-26T02:23:24.561Z,0.00
2022-11-26T02:24:24.591Z,0.00
2022-11-26T02:25:25.216Z,0.00
2022-11-26T02:26:24.745Z,0.00
2022-11-26T02:27:24.696Z,0.00
2022-11-26T02:28:24.708Z,0.00
2022-11-26T02:29:24.731Z,0.00
2022-11-26T02:30:24.752Z,0.00
2022-11-26T02:31:24.813Z,0.00
2022-11-26T02:32:25.110Z,0.00
2022-11-26T02:33:24.837Z,0.00
2022-11-26T02:34:24.976Z,0.00
2022-11-26T02:35:24.894Z,0.00
2022-11-26T02:36:24.925Z,0.00
2022-11-26T02:37:24.948Z,0.00
2022-11-26T02:38:24.978Z,0.00
2022-11-26T02:39:25.003Z,0.00
2022-11-26T02:40:25.033Z,0.00
2022-11-26T02:41:25.065Z,0.00
2022-11-26T02:42:25.091Z,0.00
2022-11-26T02:43:25.138Z,0.00
2022-11-26T02:44:25.145Z,0.00
2022-11-26T02:45:25.534Z,0.00
2022-11-26T02:46:25.249Z,0.00
2022-11-26T02:47:25.232Z,0.00
2022-11-26T02:49:25.287Z,0.00
2022-11-26T02:50:25.312Z,0.00
2022-11-26T02:51:27.497Z,0.00
2022-11-26T02:52:25.365Z,0.00
2022-11-26T02:53:25.396Z,0.00
2022-11-26T02:55:25.448Z,0.00
2022-11-26T02:56:25.477Z,0.00
2022-11-26T02:57:25.806Z,0.00
2022-11-26T02:58:25.536Z,0.00
2022-11-26T02:59:25.587Z,0.00
2022-11-26T03:00:25.592Z,0.00
2022-11-26T03:01:25.697Z,0.00
2022-11-26T03:02:25.652Z,0.00
2022-11-26T03:03:25.674Z,0.00
2022-11-26T03:04:25.820Z,0.00
2022-11-26T03:05:25.732Z,0.00
2022-11-26T03:06:25.838Z,0.00
2022-11-26T03:07:25.860Z,0.00
2022-11-26T03:08:25.815Z,0.00
2022-11-26T03:09:25.859Z,0.00
2022-11-26T03:10:25.869Z,0.00
2022-11-26T03:11:25.951Z,0.00
2022-11-26T03:12:25.927Z,0.00
2022-11-26T03:13:25.954Z,0.00
2022-11-26T03:14:25.982Z,0.00
2022-11-26T03:15:26.031Z,0.00
2022-11-26T03:16:26.141Z,0.00
2022-11-26T03:17:26.067Z,0.00
2022-11-26T03:18:26.843Z,0.00
2022-11-26T03:19:26.123Z,0.00
2022-11-26T03:20:26.156Z,0.00
2022-11-26T03:21:26.174Z,0.00
2022-11-26T03:22:26.208Z,0.00
2022-11-26T03:23:26.233Z,0.00
2022-11-26T03:24:26.268Z,0.00
2022-11-26T03:25:26.288Z,0.00
2022-11-26T03:26:26.324Z,0.00
2022-11-26T03:27:26.348Z,0.00
2022-11-26T03:28:26.375Z,0.00
2022-11-26T03:29:26.506Z,0.00
2022-11-26T03:30:26.430Z,0.00
2022-11-26T03:31:26.538Z,0.00
2022-11-26T03:32:26.488Z,0.00
2022-11-26T03:33:26.527Z,0.00
2022-11-26T03:34:26.541Z,0.00
2022-11-26T03:35:26.566Z,0.00
2022-11-26T03:37:26.622Z,0.00
2022-11-26T03:38:26.705Z,0.00
2022-11-26T03:39:26.991Z,0.00
2022-11-26T03:40:26.708Z,0.00
2022-11-26T03:41:26.741Z,0.00
2022-11-26T03:42:26.769Z,0.00
2022-11-26T03:43:26.797Z,0.00
2022-11-26T03:44:26.816Z,0.00
2022-11-26T03:45:27.053Z,0.00
2022-11-26T03:46:26.876Z,0.00
2022-11-26T03:47:26.932Z,0.00
2022-11-26T03:48:26.938Z,0.00
2022-11-26T03:49:26.957Z,0.00
2022-11-26T03:50:26.986Z,0.00
2022-11-26T03:51:27.016Z,0.00
2022-11-26T03:52:27.448Z,0.00
2022-11-26T03:53:27.178Z,0.00
2022-11-26T03:54:27.098Z,0.00
2022-11-26T03:55:27.127Z,0.00
2022-11-26T03:56:27.286Z,0.00
2022-11-26T03:57:27.180Z,0.00
2022-11-26T03:58:27.209Z,0.00
2022-11-26T03:59:27.242Z,0.00
2022-11-26T04:00:27.273Z,0.00
2022-11-26T04:01:27.393Z,0.00
2022-11-26T04:02:27.371Z,0.00
2022-11-26T04:03:27.476Z,0.00
2022-11-26T04:04:27.384Z,0.00
2022-11-26T04:05:27.659Z,0.00
2022-11-26T04:06:27.434Z,0.00
2022-11-26T04:07:27.514Z,0.00
2022-11-26T04:08:27.491Z,0.00
2022-11-26T04:09:27.548Z,0.00
2022-11-26T04:10:27.646Z,0.00
2022-11-26T04:11:27.583Z,0.00
2022-11-26T04:12:27.626Z,0.00
2022-11-26T04:13:27.727Z,0.00
2022-11-26T04:14:27.660Z,0.00
2022-11-26T04:15:27.680Z,0.00
2022-11-26T04:17:27.747Z,0.00
2022-11-26T04:18:28.023Z,0.00
2022-11-26T04:19:27.830Z,0.00
2022-11-26T04:20:27.921Z,0.00
2022-11-26T04:21:27.854Z,0.00
2022-11-26T04:22:27.899Z,0.00
2022-11-26T04:23:27.908Z,0.00
2022-11-26T04:24:28.183Z,0.00
2022-11-26T04:25:27.983Z,0.00
2022-11-26T04:26:27.988Z,0.00
2022-11-26T04:27:28.020Z,0.00
2022-11-26T04:28:28.046Z,0.00
2022-11-26T04:29:28.080Z,0.00
2022-11-26T04:30:29.927Z,0.00
2022-11-26T04:31:28.185Z,0.00
2022-11-26T04:32:28.323Z,0.00
2022-11-26T04:33:28.191Z,0.00
2022-11-26T04:34:28.215Z,0.00
2022-11-26T04:35:28.277Z,0.00
2022-11-26T04:36:28.269Z,0.00
2022-11-26T04:38:28.328Z,0.00
2022-11-26T04:39:28.351Z,0.00
2022-11-26T04:40:28.381Z,0.00
2022-11-26T04:41:28.410Z,0.00
2022-11-26T04:42:28.740Z,0.00
2022-11-26T04:43:28.464Z,0.00
2022-11-26T04:44:28.495Z,0.00
2022-11-26T04:45:28.532Z,0.00
2022-11-26T04:46:28.549Z,0.00
2022-11-26T04:47:28.579Z,0.00
2022-11-26T04:48:28.601Z,0.00
2022-11-26T04:49:28.888Z,0.00
2022-11-26T04:50:28.659Z,0.00
2022-11-26T04:51:28.705Z,0.00
2022-11-26T04:52:28.720Z,0.00
2022-11-26T04:53:28.741Z,0.00
2022-11-26T04:54:28.768Z,0.00
2022-11-26T04:55:28.799Z,0.00
2022-11-26T04:56:28.829Z,0.00
2022-11-26T04:57:28.855Z,0.00
2022-11-26T04:58:28.881Z,0.00
2022-11-26T04:59:28.910Z,0.00
2022-11-26T05:00:28.941Z,0.00
2022-11-26T05:01:29.081Z,0.00
2022-11-26T05:02:29.360Z,0.00
2022-11-26T05:03:29.020Z,0.00
2022-11-26T05:04:29.049Z,0.00
2022-11-26T05:05:29.072Z,0.00
2022-11-26T05:06:29.108Z,0.00
2022-11-26T05:07:29.243Z,0.00
2022-11-26T05:08:29.466Z,0.00
2022-11-26T05:09:29.187Z,0.00
2022-11-26T05:10:29.212Z,0.00
2022-11-26T05:11:29.241Z,0.00
2022-11-26T05:12:29.275Z,0.00
2022-11-26T05:13:29.297Z,0.00
2022-11-26T05:14:29.573Z,0.00
2022-11-26T05:15:29.351Z,0.00
2022-11-26T05:16:29.412Z,0.00
2022-11-26T05:17:29.407Z,0.00
2022-11-26T05:18:29.440Z,0.00
2022-11-26T05:19:29.489Z,0.00
2022-11-26T05:20:29.493Z,0.00
2022-11-26T05:21:29.518Z,0.00
2022-11-26T05:22:29.553Z,0.00
2022-11-26T05:23:29.602Z,0.00
2022-11-26T05:24:29.711Z,0.00
2022-11-26T05:25:29.628Z,0.00
2022-11-26T05:26:29.661Z,0.00
2022-11-26T05:27:29.935Z,0.00
2022-11-26T05:29:29.744Z,0.00
2022-11-26T05:30:29.773Z,0.00
2022-11-26T05:31:29.849Z,0.00
2022-11-26T05:32:29.827Z,0.00
2022-11-26T05:33:29.853Z,0.00
2022-11-26T05:34:29.878Z,0.00
2022-11-26T05:35:29.913Z,0.00
2022-11-26T05:36:30.035Z,0.00
2022-11-26T05:37:29.966Z,0.00
2022-11-26T05:38:29.995Z,0.00
2022-11-26T05:39:30.037Z,0.00
2022-11-26T05:40:30.295Z,0.00
2022-11-26T05:41:30.074Z,0.00
2022-11-26T05:42:30.105Z,0.00
2022-11-26T05:43:30.131Z,0.00
2022-11-26T05:44:30.293Z,0.00
2022-11-26T05:45:30.236Z,0.00
2022-11-26T05:46:30.211Z,0.00
2022-11-26T05:47:30.493Z,0.00
2022-11-26T05:48:30.269Z,0.00
2022-11-26T05:49:30.296Z,0.00
2022-11-26T05:50:30.327Z,0.00
2022-11-26T05:51:30.352Z,0.00
2022-11-26T05:52:30.380Z,0.00
2022-11-26T05:53:30.423Z,0.00
2022-11-26T05:54:30.440Z,0.00
2022-11-26T05:55:30.487Z,0.00
2022-11-26T05:56:30.499Z,0.00
2022-11-26T05:57:30.520Z,0.00
2022-11-26T05:58:30.550Z,0.00
2022-11-26T05:59:30.582Z,0.00
2022-11-26T06:00:30.851Z,0.00
2022-11-26T06:01:30.627Z,0.00
2022-11-26T06:02:30.746Z,0.00
2022-11-26T06:03:30.786Z,0.00
2022-11-26T06:04:30.715Z,0.00
2022-11-26T06:05:30.743Z,0.00
2022-11-26T06:06:31.020Z,0.00
2022-11-26T06:07:30.848Z,0.00
2022-11-26T06:08:30.835Z,0.00
2022-11-26T06:09:30.877Z,0.00
2022-11-26T06:10:30.879Z,0.00
2022-11-26T06:12:31.207Z,0.00
2022-11-26T06:13:30.960Z,0.00
2022-11-26T06:14:31.091Z,0.00
2022-11-26T06:15:31.017Z,0.00
2022-11-26T06:17:31.076Z,0.00
2022-11-26T06:18:31.103Z,0.00
2022-11-26T06:19:31.131Z,0.00
2022-11-26T06:20:31.156Z,0.00
2022-11-26T06:21:31.188Z,0.00
2022-11-26T06:22:31.217Z,0.00
2022-11-26T06:23:31.241Z,0.00
2022-11-26T06:24:31.271Z,0.00
2022-11-26T06:25:31.295Z,0.00
2022-11-26T06:26:31.321Z,0.00
2022-11-26T06:27:31.351Z,0.00
2022-11-26T06:29:31.425Z,0.00
2022-11-26T06:30:31.440Z,0.00
2022-11-26T06:31:31.555Z,0.00
2022-11-26T06:32:31.497Z,0.00
2022-11-26T06:33:31.519Z,0.00
2022-11-26T06:34:31.549Z,0.00
2022-11-26T06:35:32.171Z,0.00
2022-11-26T06:36:31.846Z,0.00
2022-11-26T06:37:31.995Z,4.00
2022-11-26T06:38:32.063Z,4.00
2022-11-26T06:39:32.356Z,0.00
2022-11-26T06:40:31.727Z,4.00
2022-11-26T06:41:31.741Z,4.00
2022-11-26T06:42:31.770Z,4.00
2022-11-26T06:43:31.800Z,4.00
2022-11-26T06:44:31.821Z,4.00
2022-11-26T06:45:31.942Z,8.00
2022-11-26T06:47:31.907Z,12.00
2022-11-26T06:48:31.931Z,12.00
2022-11-26T06:49:32.268Z,16.00
2022-11-26T06:50:32.749Z,16.00
2022-11-26T06:51:32.026Z,20.00
2022-11-26T06:52:32.045Z,24.00
2022-11-26T06:53:32.071Z,24.00
2022-11-26T06:54:32.198Z,32.00
2022-11-26T06:55:32.130Z,32.00
2022-11-26T06:56:32.157Z,40.00
2022-11-26T06:57:32.187Z,44.00
2022-11-26T06:58:32.215Z,52.00
2022-11-26T06:59:32.240Z,56.00
2022-11-26T07:00:32.372Z,64.00
2022-11-26T07:01:32.706Z,68.00
2022-11-26T07:02:32.436Z,76.00
2022-11-26T07:03:33.576Z,88.00
2022-11-26T07:04:32.374Z,96.00
2022-11-26T07:05:32.408Z,104.00
2022-11-26T07:06:32.434Z,112.00
2022-11-26T07:07:32.485Z,120.00
2022-11-26T07:08:32.488Z,136.00
2022-11-26T07:09:32.515Z,144.00
2022-11-26T07:10:32.542Z,156.00
2022-11-26T07:11:32.572Z,164.00
2022-11-26T07:12:32.595Z,176.00
2022-11-26T07:13:32.625Z,192.00
2022-11-26T07:14:32.650Z,200.00
2022-11-26T07:16:32.805Z,228.00
2022-11-26T07:17:32.757Z,240.00
2022-11-26T07:18:32.773Z,260.00
2022-11-26T07:19:32.792Z,272.00
2022-11-26T07:21:32.853Z,300.00
2022-11-26T07:22:32.890Z,316.00
2022-11-26T07:23:32.901Z,332.00
2022-11-26T07:24:32.931Z,344.00
2022-11-26T07:25:32.961Z,356.00
2022-11-26T07:26:33.234Z,376.00
2022-11-26T07:27:33.014Z,388.00
2022-11-26T07:28:33.042Z,400.00
2022-11-26T07:29:33.068Z,416.00
2022-11-26T07:30:33.106Z,428.00
2022-11-26T07:31:33.178Z,448.00
2022-11-26T07:32:33.151Z,468.00
2022-11-26T07:33:33.199Z,484.00
2022-11-26T07:34:33.205Z,504.00
2022-11-26T07:35:33.235Z,516.00
2022-11-26T07:36:33.264Z,532.00
2022-11-26T07:37:33.292Z,544.00
2022-11-26T07:38:33.316Z,556.00
2022-11-26T07:39:33.352Z,572.00
2022-11-26T07:40:33.372Z,584.00
2022-11-26T07:41:33.403Z,600.00
2022-11-26T07:42:33.428Z,608.00
2022-11-26T07:43:33.460Z,624.00
2022-11-26T07:44:33.734Z,640.00
2022-11-26T07:45:33.512Z,652.00
2022-11-26T07:46:33.621Z,668.00
2022-11-26T07:47:33.576Z,684.00
2022-11-26T07:48:33.598Z,692.00
2022-11-26T07:49:33.645Z,704.00
2022-11-26T07:50:33.649Z,720.00
2022-11-26T07:51:33.930Z,740.00
2022-11-26T07:52:33.704Z,760.00
2022-11-26T07:53:33.733Z,780.00
2022-11-26T07:54:33.764Z,800.00
2022-11-26T07:55:33.788Z,820.00
2022-11-26T07:56:33.817Z,832.00
2022-11-26T07:57:33.846Z,840.00
2022-11-26T07:58:33.873Z,844.00
2022-11-26T07:59:33.905Z,848.00
2022-11-26T08:00:33.934Z,848.00
2022-11-26T08:01:34.073Z,856.00
2022-11-26T08:02:34.036Z,868.00
2022-11-26T08:03:34.014Z,880.00
2022-11-26T08:04:34.038Z,888.00
2022-11-26T08:05:34.086Z,908.00
2022-11-26T08:07:34.161Z,932.00
2022-11-26T08:08:34.151Z,948.00
2022-11-26T08:09:34.189Z,960.00
2022-11-26T08:10:34.209Z,968.00
2022-11-26T08:11:34.286Z,972.00
2022-11-26T08:12:34.261Z,984.00
2022-11-26T08:13:34.291Z,992.00
2022-11-26T08:14:34.320Z,1004.00
2022-11-26T08:15:34.348Z,1012.00
2022-11-26T08:16:34.466Z,1020.00
2022-11-26T08:17:34.751Z,1028.00
2022-11-26T08:18:34.428Z,1040.00
2022-11-26T08:20:34.486Z,1060.00
2022-11-26T08:21:34.529Z,1068.00
2022-11-26T08:22:34.828Z,1072.00
2022-11-26T08:23:34.576Z,1076.00
2022-11-26T08:25:34.627Z,1124.00
2022-11-26T08:26:39.718Z,1132.00
2022-11-26T08:27:34.679Z,1140.00
2022-11-26T08:28:34.727Z,1156.00
2022-11-26T08:29:34.986Z,1176.00
2022-11-26T08:30:34.762Z,1192.00
2022-11-26T08:31:35.044Z,1208.00
2022-11-26T08:32:34.817Z,1224.00
2022-11-26T08:33:35.148Z,1256.00
2022-11-26T08:34:34.893Z,1280.00
2022-11-26T08:36:04.960Z,1304.00
2022-11-26T08:36:35.231Z,1324.00
2022-11-26T08:37:34.976Z,1348.00
2022-11-26T08:38:34.985Z,1368.00
2022-11-26T08:39:35.017Z,1384.00
2022-11-26T08:41:35.066Z,1416.00
2022-11-26T08:42:35.102Z,1432.00
2022-11-26T08:44:04.425Z,1452.00
2022-11-26T08:44:35.162Z,1472.00
2022-11-26T08:45:35.177Z,1492.00
2022-11-26T08:46:35.264Z,1516.00
2022-11-26T08:47:35.235Z,1540.00
2022-11-26T08:48:35.263Z,1564.00
2022-11-26T08:49:35.543Z,1588.00
2022-11-26T08:50:35.323Z,1604.00
2022-11-26T08:51:35.349Z,1604.00
2022-11-26T08:52:35.378Z,1596.00
2022-11-26T08:53:35.424Z,1604.00
2022-11-26T08:54:35.432Z,1616.00
2022-11-26T08:56:35.740Z,1620.00
2022-11-26T08:57:35.515Z,1616.00
2022-11-26T08:58:35.541Z,1604.00
2022-11-26T08:59:35.571Z,1576.00
2022-11-26T09:00:35.598Z,1556.00
2022-11-26T09:01:35.729Z,1540.00
2022-11-26T09:02:35.730Z,1536.00
2022-11-26T09:03:35.784Z,1544.00
2022-11-26T09:04:35.718Z,1544.00
2022-11-26T09:05:35.743Z,1504.00
2022-11-26T09:06:35.768Z,1484.00
2022-11-26T09:07:35.924Z,1504.00
2022-11-26T09:08:35.822Z,1476.00
2022-11-26T09:09:36.173Z,1512.00
2022-11-26T09:10:35.980Z,1524.00
2022-11-26T09:12:35.935Z,1556.00
2022-11-26T09:13:35.963Z,1564.00
2022-11-26T09:14:36.170Z,1572.00
2022-11-26T09:15:36.318Z,1572.00
2022-11-26T09:16:36.214Z,1556.00
2022-11-26T09:17:36.074Z,1548.00
2022-11-26T09:18:36.107Z,1548.00
2022-11-26T09:19:36.129Z,1552.00
2022-11-26T09:20:36.160Z,1572.00
2022-11-26T09:21:37.538Z,1576.00
2022-11-26T09:22:36.321Z,1596.00
2022-11-26T09:23:36.243Z,1624.00
2022-11-26T09:24:36.461Z,1668.00
2022-11-26T09:25:36.317Z,1700.00
2022-11-26T09:26:36.330Z,1716.00
2022-11-26T09:27:36.654Z,1720.00
2022-11-26T09:28:36.382Z,1752.00
2022-11-26T09:29:36.429Z,1784.00
2022-11-26T09:30:36.438Z,1800.00
2022-11-26T09:31:37.070Z,1828.00
2022-11-26T09:32:36.545Z,1848.00
2022-11-26T09:33:36.518Z,1888.00
2022-11-26T09:34:36.966Z,1924.00
2022-11-26T09:35:36.584Z,1916.00
2022-11-26T09:36:36.608Z,1908.00
2022-11-26T09:37:36.638Z,1892.00
2022-11-26T09:38:36.676Z,1864.00
2022-11-26T09:39:36.690Z,1836.00
2022-11-26T09:40:36.738Z,1844.00
2022-11-26T09:41:36.768Z,1852.00
2022-11-26T09:42:36.778Z,1864.00
2022-11-26T09:43:36.810Z,1892.00
2022-11-26T09:44:37.311Z,1928.00
2022-11-26T09:45:36.886Z,2000.00
2022-11-26T09:46:50.811Z,2064.00
2022-11-26T09:47:36.926Z,2072.00
2022-11-26T09:48:36.980Z,2096.00
2022-11-26T09:49:36.972Z,2120.00
2022-11-26T09:50:36.997Z,2112.00
2022-11-26T09:51:37.028Z,2104.00
2022-11-26T09:52:37.077Z,2108.00
2022-11-26T09:53:37.083Z,2120.00
2022-11-26T09:54:37.357Z,2140.00
2022-11-26T09:55:37.148Z,2172.00
2022-11-26T09:56:37.173Z,2192.00
2022-11-26T09:57:37.219Z,2200.00
2022-11-26T09:58:37.227Z,2204.00
2022-11-26T09:59:37.354Z,2212.00
2022-11-26T10:00:37.283Z,2196.00
2022-11-26T10:01:37.388Z,2184.00
2022-11-26T10:02:37.439Z,2168.00
2022-11-26T10:03:37.368Z,2152.00
2022-11-26T10:04:38.047Z,2144.00
2022-11-26T10:05:37.419Z,2128.00
2022-11-26T10:06:37.457Z,2124.00
2022-11-26T10:07:37.594Z,2124.00
2022-11-26T10:09:37.535Z,2124.00
2022-11-26T10:10:37.559Z,2120.00
2022-11-26T10:11:37.595Z,2108.00
2022-11-26T10:12:56.269Z,2080.00
2022-11-26T10:13:37.669Z,2052.00
2022-11-26T10:14:37.976Z,2024.00
2022-11-26T10:15:37.706Z,2008.00
2022-11-26T10:16:37.779Z,2068.00
2022-11-26T10:18:38.052Z,2072.00
2022-11-26T10:19:37.820Z,2088.00
2022-11-26T10:20:37.853Z,2120.00
2022-11-26T10:21:58.022Z,2144.00
2022-11-26T10:22:37.909Z,2172.00
2022-11-26T10:23:37.944Z,2200.00
2022-11-26T10:24:38.225Z,2224.00
2022-11-26T10:27:38.296Z,2252.00
2022-11-26T10:28:38.076Z,2276.00
2022-11-26T10:29:38.122Z,2328.00
2022-11-26T10:30:38.132Z,2404.00
2022-11-26T10:31:38.220Z,2436.00
2022-11-26T10:32:38.183Z,2456.00
2022-11-26T10:33:38.216Z,2480.00
2022-11-26T10:34:39.361Z,2508.00
2022-11-26T10:35:38.272Z,2520.00
2022-11-26T10:37:38.328Z,2604.00
2022-11-26T10:38:38.361Z,2644.00
2022-11-26T10:39:38.642Z,2652.00
2022-11-26T10:40:38.414Z,2668.00
2022-11-26T10:42:38.474Z,2672.00
2022-11-26T10:43:38.599Z,2628.00
2022-11-26T10:45:38.828Z,2516.00
2022-11-26T10:46:38.650Z,2452.00
2022-11-26T10:47:38.623Z,2444.00
2022-11-26T10:48:38.741Z,2436.00
2022-11-26T10:49:38.671Z,2388.00
2022-11-26T10:50:54.082Z,2376.00
2022-11-26T10:51:38.727Z,2392.00
2022-11-26T10:52:38.760Z,2396.00
2022-11-26T10:53:38.784Z,2392.00
2022-11-26T10:54:39.301Z,2388.00
2022-11-26T10:55:38.842Z,2376.00
2022-11-26T10:56:38.866Z,2356.00
2022-11-26T10:57:38.897Z,2344.00
2022-11-26T10:58:39.178Z,2340.00
2022-11-26T10:59:39.323Z,2360.00
2022-11-26T11:00:39.133Z,2396.00
2022-11-26T11:01:39.160Z,2432.00
2022-11-26T11:02:39.287Z,2456.00
2022-11-26T11:04:06.685Z,2484.00
2022-11-26T11:05:39.424Z,2524.00
2022-11-26T11:06:39.155Z,2556.00
2022-11-26T11:07:39.234Z,2596.00
2022-11-26T11:08:39.214Z,2640.00
2022-11-26T11:09:39.256Z,2684.00
2022-11-26T11:10:39.324Z,2724.00
2022-11-26T11:11:39.546Z,2740.00
2022-11-26T11:12:39.332Z,2736.00
2022-11-26T11:13:39.351Z,2720.00
2022-11-26T11:14:42.692Z,2704.00
2022-11-26T11:15:39.428Z,2696.00
2022-11-26T11:16:39.557Z,2700.00
2022-11-26T11:17:39.488Z,2708.00
2022-11-26T11:18:39.508Z,2716.00
2022-11-26T11:19:39.528Z,2736.00
2022-11-26T11:20:39.560Z,2760.00
2022-11-26T11:21:43.833Z,2756.00
2022-11-26T11:22:39.724Z,2756.00
2022-11-26T11:24:07.009Z,2752.00
2022-11-26T11:24:39.666Z,2748.00
2022-11-26T11:25:39.694Z,2736.00
2022-11-26T11:26:39.727Z,2704.00
2022-11-26T11:27:39.752Z,2676.00
2022-11-26T11:28:39.783Z,2640.00
2022-11-26T11:29:39.808Z,2588.00
2022-11-26T11:30:39.843Z,2556.00
2022-11-26T11:32:39.903Z,2504.00
2022-11-26T11:33:39.945Z,2480.00
2022-11-26T11:34:40.224Z,2456.00
2022-11-26T11:35:39.990Z,2392.00
2022-11-26T11:36:40.012Z,2336.00
2022-11-26T11:37:40.043Z,2296.00
2022-11-26T11:38:40.068Z,2272.00
2022-11-26T11:39:40.108Z,2260.00
2022-11-26T11:40:40.133Z,2244.00
2022-11-26T11:41:40.159Z,2224.00
2022-11-26T11:42:40.212Z,2204.00
2022-11-26T11:43:40.215Z,2188.00
2022-11-26T11:44:40.733Z,2188.00
2022-11-26T11:45:40.321Z,2208.00
2022-11-26T11:46:40.298Z,2244.00
2022-11-26T11:47:40.581Z,2296.00
2022-11-26T11:48:40.355Z,2344.00
2022-11-26T11:49:40.405Z,2388.00
2022-11-26T11:50:40.412Z,2424.00
2022-11-26T11:51:40.442Z,2444.00
2022-11-26T11:52:40.483Z,2468.00
2022-11-26T11:53:40.749Z,2504.00
2022-11-26T11:54:41.079Z,2540.00
2022-11-26T11:55:40.561Z,2568.00
2022-11-26T11:56:40.591Z,2580.00
2022-11-26T11:57:40.615Z,2588.00
2022-11-26T11:58:40.643Z,2592.00
2022-11-26T11:59:40.674Z,2600.00
2022-11-26T12:00:40.707Z,2604.00
2022-11-26T12:01:40.774Z,2612.00
2022-11-26T12:02:40.759Z,2620.00
2022-11-26T12:04:41.435Z,2644.00
2022-11-26T12:05:40.865Z,2656.00
2022-11-26T12:06:40.876Z,2668.00
2022-11-26T12:07:40.995Z,2676.00
2022-11-26T12:08:40.932Z,2672.00
2022-11-26T12:09:40.959Z,2676.00
2022-11-26T12:10:40.990Z,2696.00
2022-11-26T12:12:41.044Z,2712.00
2022-11-26T12:13:41.072Z,2740.00
2022-11-26T12:14:41.635Z,2748.00
2022-11-26T12:15:41.134Z,2760.00
2022-11-26T12:16:41.242Z,2768.00
2022-11-26T12:17:41.191Z,2768.00
2022-11-26T12:19:41.246Z,2776.00
2022-11-26T12:20:41.283Z,2756.00
2022-11-26T12:21:41.327Z,2728.00
2022-11-26T12:22:41.341Z,2684.00
2022-11-26T12:23:41.371Z,2636.00
2022-11-26T12:24:41.596Z,2592.00
2022-11-26T12:25:41.720Z,2572.00
2022-11-26T12:26:41.451Z,2552.00
2022-11-26T12:27:41.478Z,2556.00
2022-11-26T12:28:41.519Z,2580.00
2022-11-26T12:29:41.536Z,2604.00
2022-11-26T12:30:41.569Z,2624.00
2022-11-26T12:31:41.674Z,2636.00
2022-11-26T12:32:41.633Z,2636.00
2022-11-26T12:33:41.654Z,2628.00
2022-11-26T12:34:41.924Z,2624.00
2022-11-26T12:35:41.708Z,2620.00
2022-11-26T12:36:41.739Z,2596.00
2022-11-26T12:37:41.789Z,2560.00
2022-11-26T12:39:41.947Z,2520.00
2022-11-26T12:40:41.862Z,2504.00
2022-11-26T12:41:41.885Z,2492.00
2022-11-26T12:42:41.925Z,2476.00
2022-11-26T12:43:41.949Z,2484.00
2022-11-26T12:44:42.302Z,2492.00
2022-11-26T12:45:42.091Z,2496.00
2022-11-26T12:46:42.133Z,2496.00
2022-11-26T12:47:42.358Z,2512.00
2022-11-26T12:48:42.096Z,2524.00
2022-11-26T12:49:42.117Z,2520.00
2022-11-26T12:50:42.145Z,2520.00
2022-11-26T12:51:42.212Z,2516.00
2022-11-26T12:52:42.214Z,2488.00
2022-11-26T12:53:42.702Z,2480.00
2022-11-26T12:54:42.443Z,2468.00
2022-11-26T12:55:42.293Z,2436.00
2022-11-26T12:56:42.318Z,2396.00
2022-11-26T12:57:42.404Z,2352.00
2022-11-26T12:59:42.706Z,2280.00
2022-11-26T13:00:42.477Z,2240.00
2022-11-26T13:01:42.474Z,2188.00
2022-11-26T13:02:42.539Z,2144.00
2022-11-26T13:03:42.560Z,2112.00
2022-11-26T13:05:45.302Z,2096.00
2022-11-26T13:06:42.610Z,2108.00
2022-11-26T13:07:42.764Z,2152.00
2022-11-26T13:08:42.678Z,2204.00
2022-11-26T13:09:42.716Z,2248.00
2022-11-26T13:10:42.724Z,2276.00
2022-11-26T13:11:42.755Z,2288.00
2022-11-26T13:12:43.087Z,2288.00
2022-11-26T13:13:42.818Z,2292.00
2022-11-26T13:14:42.849Z,2300.00
2022-11-26T13:15:42.900Z,2308.00
2022-11-26T13:16:43.064Z,2312.00
2022-11-26T13:17:42.933Z,2324.00
2022-11-26T13:18:43.049Z,2340.00
2022-11-26T13:19:42.987Z,2368.00
2022-11-26T13:20:43.041Z,2392.00
2022-11-26T13:21:43.064Z,2404.00
2022-11-26T13:24:43.393Z,2380.00
2022-11-26T13:25:43.180Z,2368.00
2022-11-26T13:26:43.197Z,2356.00
2022-11-26T13:27:43.233Z,2336.00
2022-11-26T13:29:43.279Z,2264.00
2022-11-26T13:30:43.522Z,2244.00
2022-11-26T13:32:43.667Z,2212.00
2022-11-26T13:33:43.397Z,2196.00
2022-11-26T13:34:43.423Z,2212.00
2022-11-26T13:35:43.456Z,2256.00